Time;durP1;ratioP1;P1;durP2;ratioP2;P2;SDS_P1;SDS_P2;PMS_P1;PMS_P2;Temp;Humidity;BMP_temperature;BMP_pressure;BME280_temperature;BME280_humidity;BME280_pressure;Samples;Min_cycle;Max_cycle;Signal;HPM_P1;HPM_P2
2021/12/19 00:00:12;;;;;;;53.50;30.80;;;;;;;;;;5015795;28;20104;-66
2021/12/19 00:08:50;;;;;;;49.78;30.50;;;;;;;;;;5018340;28;20436;-69
2021/12/19 00:11:35;;;;;;;53.10;31.95;;;;;;;;;;5005984;28;20543;-70
2021/12/19 00:14:23;;;;;;;51.38;31.08;;;;;;;;;;5010270;28;20027;-69
2021/12/19 00:17:08;;;;;;;46.08;29.55;;;;;;;;;;5022704;28;20030;-71
2021/12/19 00:19:53;;;;;;;49.08;30.05;;;;;;;;;;5024035;28;20021;-72
2021/12/19 00:22:39;;;;;;;50.08;30.30;;;;;;;;;;5017049;28;20496;-64
2021/12/19 00:25:24;;;;;;;49.13;30.80;;;;;;;;;;5026344;28;20147;-65
2021/12/19 00:28:10;;;;;;;44.90;29.40;;;;;;;;;;5009481;28;20093;-67
2021/12/19 00:30:56;;;;;;;50.20;31.70;;;;;;;;;;5020028;28;20041;-66
2021/12/19 00:33:41;;;;;;;47.95;29.65;;;;;;;;;;5015698;28;20366;-67
2021/12/19 00:36:27;;;;;;;47.20;29.85;;;;;;;;;;5010066;28;20113;-68
2021/12/19 00:39:13;;;;;;;50.15;30.73;;;;;;;;;;4997997;28;20064;-67
2021/12/19 00:41:58;;;;;;;48.08;29.67;;;;;;;;;;5007241;28;20445;-66
2021/12/19 00:44:45;;;;;;;51.50;31.30;;;;;;;;;;5020212;28;20623;-70
2021/12/19 00:47:30;;;;;;;51.47;30.75;;;;;;;;;;5025829;28;20068;-71
2021/12/19 00:50:15;;;;;;;47.45;29.65;;;;;;;;;;5041161;28;20057;-70
2021/12/19 00:53:01;;;;;;;51.47;31.50;;;;;;;;;;5038247;28;20030;-72
2021/12/19 00:55:46;;;;;;;50.55;32.00;;;;;;;;;;5012909;28;20035;-70
2021/12/19 00:58:31;;;;;;;50.58;30.17;;;;;;;;;;5039617;28;20080;-70
2021/12/19 01:01:17;;;;;;;49.83;30.92;;;;;;;;;;5006875;28;20554;-65
2021/12/19 01:04:04;;;;;;;52.30;29.67;;;;;;;;;;5007505;28;20032;-66
2021/12/19 01:06:49;;;;;;;49.95;30.30;;;;;;;;;;5047613;28;20454;-64
2021/12/19 01:09:35;;;;;;;50.28;29.77;;;;;;;;;;5021835;28;20088;-64
2021/12/19 01:12:20;;;;;;;53.45;33.33;;;;;;;;;;5014787;28;20034;-65
2021/12/19 01:15:06;;;;;;;48.65;28.98;;;;;;;;;;5020287;28;20625;-63
2021/12/19 01:17:51;;;;;;;50.47;30.73;;;;;;;;;;5020500;28;20531;-64
2021/12/19 01:20:38;;;;;;;51.75;31.73;;;;;;;;;;5008737;28;20107;-70
2021/12/19 01:23:23;;;;;;;47.10;28.83;;;;;;;;;;5028771;28;20558;-64
2021/12/19 01:26:08;;;;;;;51.03;28.50;;;;;;;;;;5017132;28;20037;-66
2021/12/19 01:28:53;;;;;;;52.08;31.08;;;;;;;;;;5007129;28;20021;-65
2021/12/19 01:31:39;;;;;;;49.33;28.63;;;;;;;;;;5009416;28;20021;-69
2021/12/19 01:34:24;;;;;;;45.70;28.23;;;;;;;;;;5011788;28;20465;-70
2021/12/19 01:37:09;;;;;;;49.47;28.17;;;;;;;;;;5053486;28;20037;-71
2021/12/19 01:39:54;;;;;;;55.80;29.98;;;;;;;;;;5034460;28;20557;-68
2021/12/19 01:42:41;;;;;;;52.75;29.58;;;;;;;;;;5039593;28;20030;-68
2021/12/19 01:45:28;;;;;;;49.20;29.15;;;;;;;;;;5018369;28;20042;-67
2021/12/19 01:48:13;;;;;;;45.78;27.27;;;;;;;;;;5023372;28;20046;-67
2021/12/19 01:50:58;;;;;;;51.00;29.05;;;;;;;;;;5021079;28;20034;-68
2021/12/19 01:53:44;;;;;;;56.15;29.92;;;;;;;;;;4997832;28;20022;-68
2021/12/19 01:56:30;;;;;;;44.35;26.55;;;;;;;;;;5017011;28;20027;-66
2021/12/19 01:59:15;;;;;;;47.65;29.13;;;;;;;;;;5016737;28;20026;-70
2021/12/19 02:02:01;;;;;;;47.30;27.35;;;;;;;;;;5044752;28;20029;-73
2021/12/19 02:04:46;;;;;;;47.20;27.10;;;;;;;;;;5006866;28;20036;-72
2021/12/19 02:07:31;;;;;;;48.65;28.00;;;;;;;;;;5040408;28;20546;-71
2021/12/19 02:10:18;;;;;;;47.58;27.65;;;;;;;;;;5042963;28;20032;-71
2021/12/19 02:13:04;;;;;;;56.85;29.88;;;;;;;;;;5038306;28;20119;-66
2021/12/19 02:15:51;;;;;;;42.08;24.80;;;;;;;;;;5010983;28;20511;-66
2021/12/19 02:18:36;;;;;;;55.85;28.45;;;;;;;;;;5005520;28;20444;-70
2021/12/19 02:21:22;;;;;;;42.03;24.17;;;;;;;;;;5029217;28;20033;-70
2021/12/19 02:24:08;;;;;;;45.13;26.27;;;;;;;;;;5013514;28;20499;-69
2021/12/19 02:26:53;;;;;;;39.10;22.48;;;;;;;;;;5022718;28;20203;-70
2021/12/19 02:29:38;;;;;;;36.38;21.45;;;;;;;;;;5016246;28;20488;-70
2021/12/19 02:32:25;;;;;;;36.72;20.48;;;;;;;;;;5023505;28;20032;-70
2021/12/19 02:35:15;;;;;;;33.72;18.98;;;;;;;;;;5049496;28;20149;-69
2021/12/19 02:50:00;;;;;;;29.38;17.23;;;;;;;;;;5010559;28;20026;-64
2021/12/19 02:52:45;;;;;;;30.58;17.45;;;;;;;;;;5015492;28;20477;-70
2021/12/19 02:55:31;;;;;;;30.33;18.75;;;;;;;;;;5003402;28;20038;-71
2021/12/19 02:58:16;;;;;;;27.35;17.30;;;;;;;;;;5029316;28;20060;-68
2021/12/19 03:01:03;;;;;;;35.15;19.02;;;;;;;;;;5024800;28;20124;-69
2021/12/19 03:03:49;;;;;;;34.15;18.33;;;;;;;;;;5018235;28;20068;-69
2021/12/19 03:06:34;;;;;;;26.30;17.23;;;;;;;;;;5021730;28;20029;-69
2021/12/19 03:09:55;;;;;;;27.02;15.80;;;;;;;;;;5035702;28;20412;-67
2021/12/19 03:13:01;;;;;;;26.70;15.43;;;;;;;;;;5045773;28;20064;-64
2021/12/19 03:18:51;;;;;;;24.75;13.90;;;;;;;;;;5023642;28;20022;-66
2021/12/19 03:21:36;;;;;;;23.67;13.95;;;;;;;;;;5013241;28;20025;-65
2021/12/19 03:24:21;;;;;;;26.67;15.15;;;;;;;;;;5002315;28;20030;-65
2021/12/19 03:27:06;;;;;;;27.13;15.15;;;;;;;;;;5019900;28;20064;-65
2021/12/19 03:29:52;;;;;;;27.52;14.60;;;;;;;;;;5034866;28;20025;-68
2021/12/19 03:32:38;;;;;;;22.85;13.73;;;;;;;;;;5040785;28;20033;-69
2021/12/19 03:35:24;;;;;;;25.60;15.25;;;;;;;;;;5008700;28;20080;-68
2021/12/19 03:38:10;;;;;;;25.65;14.77;;;;;;;;;;5020533;28;20056;-72
2021/12/19 03:41:13;;;;;;;25.00;14.73;;;;;;;;;;5017670;28;20018;-71
2021/12/19 03:43:58;;;;;;;27.05;14.30;;;;;;;;;;5023099;28;20053;-69
2021/12/19 03:46:43;;;;;;;26.00;13.75;;;;;;;;;;5020754;28;20063;-70
2021/12/19 03:49:29;;;;;;;23.88;14.23;;;;;;;;;;4996580;28;20039;-70
2021/12/19 03:52:14;;;;;;;19.50;11.30;;;;;;;;;;5001905;28;20025;-68
2021/12/19 03:54:59;;;;;;;21.75;13.40;;;;;;;;;;5002485;28;20540;-70
2021/12/19 03:57:45;;;;;;;24.15;13.20;;;;;;;;;;5002057;28;20033;-69
2021/12/19 04:00:31;;;;;;;26.00;13.60;;;;;;;;;;5017418;28;20026;-68
2021/12/19 04:03:20;;;;;;;23.48;13.38;;;;;;;;;;5024976;28;20014;-66
2021/12/19 04:06:05;;;;;;;25.45;14.05;;;;;;;;;;5020308;28;20374;-65
2021/12/19 04:08:50;;;;;;;26.65;15.20;;;;;;;;;;5007978;28;20026;-66
2021/12/19 04:11:36;;;;;;;23.38;14.10;;;;;;;;;;5017547;28;20037;-66
2021/12/19 04:14:22;;;;;;;22.50;13.38;;;;;;;;;;5013044;28;20022;-68
2021/12/19 04:17:07;;;;;;;22.83;13.48;;;;;;;;;;5018735;28;20101;-66
2021/12/19 04:19:52;;;;;;;26.20;14.55;;;;;;;;;;5007278;28;20015;-67
2021/12/19 04:22:37;;;;;;;27.50;14.88;;;;;;;;;;5026621;28;20057;-67
2021/12/19 04:25:24;;;;;;;25.83;14.45;;;;;;;;;;5013683;28;20041;-64
2021/12/19 04:28:09;;;;;;;28.02;15.15;;;;;;;;;;5013507;28;20490;-64
2021/12/19 04:30:54;;;;;;;24.65;14.23;;;;;;;;;;5020340;28;20102;-64
2021/12/19 04:33:41;;;;;;;27.98;15.70;;;;;;;;;;5024618;28;20033;-64
2021/12/19 04:36:32;;;;;;;24.90;13.48;;;;;;;;;;5048600;28;20029;-64
2021/12/19 04:57:08;;;;;;;23.10;13.82;;;;;;;;;;5016267;28;20021;-68
2021/12/19 04:59:59;;;;;;;22.50;12.65;;;;;;;;;;5007137;28;20040;-65
2021/12/19 05:02:52;;;;;;;20.98;12.65;;;;;;;;;;5023061;28;20030;-69
2021/12/19 05:06:05;;;;;;;21.90;13.13;;;;;;;;;;5023536;28;20127;-69
2021/12/19 05:14:58;;;;;;;28.10;16.15;;;;;;;;;;5022926;28;20038;-70
2021/12/19 05:17:44;;;;;;;21.85;13.43;;;;;;;;;;5011139;28;20539;-66
2021/12/19 05:20:30;;;;;;;23.25;13.38;;;;;;;;;;4996173;28;20552;-70
2021/12/19 05:23:50;;;;;;;20.55;11.82;;;;;;;;;;5012845;28;20034;-72
2021/12/19 05:26:23;;;;;;;24.38;12.57;;;;;;;;;;5019092;28;20033;-70
2021/12/19 05:29:09;;;;;;;21.23;12.25;;;;;;;;;;5005730;28;20081;-69
2021/12/19 05:31:55;;;;;;;23.35;13.27;;;;;;;;;;5015798;28;20036;-70
2021/12/19 05:34:40;;;;;;;22.98;13.52;;;;;;;;;;5017582;28;20072;-70
2021/12/19 05:46:41;;;;;;;24.00;14.82;;;;;;;;;;5007884;28;20034;-67
2021/12/19 05:49:26;;;;;;;25.92;14.43;;;;;;;;;;5006671;28;20030;-68
2021/12/19 05:52:12;;;;;;;25.83;14.60;;;;;;;;;;5029149;28;20107;-68
2021/12/19 05:54:57;;;;;;;26.08;15.48;;;;;;;;;;5010317;28;20030;-72
2021/12/19 05:57:43;;;;;;;24.30;13.98;;;;;;;;;;5013452;28;20504;-65
2021/12/19 06:00:29;;;;;;;23.88;12.73;;;;;;;;;;5036459;28;20380;-67
2021/12/19 06:03:14;;;;;;;27.42;15.30;;;;;;;;;;4997789;28;20034;-66
2021/12/19 06:06:00;;;;;;;22.48;13.07;;;;;;;;;;5015850;28;20628;-65
2021/12/19 06:08:46;;;;;;;25.20;14.23;;;;;;;;;;5023106;28;20186;-64
2021/12/19 06:11:31;;;;;;;23.65;13.70;;;;;;;;;;5015970;28;20017;-66
2021/12/19 06:14:17;;;;;;;25.42;14.43;;;;;;;;;;5026468;28;20021;-67
2021/12/19 06:17:03;;;;;;;22.77;11.80;;;;;;;;;;5019559;28;20031;-70
2021/12/19 06:19:48;;;;;;;19.88;11.43;;;;;;;;;;5024938;28;20459;-71
2021/12/19 06:22:33;;;;;;;16.58;9.60;;;;;;;;;;5027786;28;20065;-75
2021/12/19 06:25:19;;;;;;;17.42;10.07;;;;;;;;;;5025854;28;20033;-70
2021/12/19 06:28:04;;;;;;;18.13;11.05;;;;;;;;;;5013879;28;20056;-71
2021/12/19 06:30:49;;;;;;;17.75;10.60;;;;;;;;;;5015976;28;20504;-71
2021/12/19 06:33:35;;;;;;;20.77;11.30;;;;;;;;;;5009780;28;20369;-72
2021/12/19 06:36:20;;;;;;;17.15;10.82;;;;;;;;;;5027662;28;20061;-69
2021/12/19 06:39:05;;;;;;;19.60;11.05;;;;;;;;;;5008256;28;20030;-68
2021/12/19 06:41:50;;;;;;;19.02;10.00;;;;;;;;;;5006262;28;20124;-69
2021/12/19 06:44:36;;;;;;;19.52;10.20;;;;;;;;;;5013730;28;20029;-68
2021/12/19 06:47:21;;;;;;;18.20;10.38;;;;;;;;;;5028650;28;20533;-66
2021/12/19 06:50:07;;;;;;;18.65;10.38;;;;;;;;;;5009444;28;20022;-67
2021/12/19 06:52:53;;;;;;;16.00;9.48;;;;;;;;;;5013349;28;20076;-67
2021/12/19 06:55:38;;;;;;;17.15;9.65;;;;;;;;;;5014079;28;20057;-67
2021/12/19 06:58:23;;;;;;;18.85;10.23;;;;;;;;;;5036912;28;20030;-67
2021/12/19 07:01:09;;;;;;;17.27;10.43;;;;;;;;;;5014610;28;20040;-70
2021/12/19 07:03:54;;;;;;;19.85;9.95;;;;;;;;;;5023550;28;20068;-68
2021/12/19 07:06:39;;;;;;;19.52;11.00;;;;;;;;;;5006722;28;20609;-67
2021/12/19 07:09:24;;;;;;;17.73;9.88;;;;;;;;;;5016637;28;20030;-69
2021/12/19 07:12:10;;;;;;;17.38;9.90;;;;;;;;;;4996794;28;20021;-66
2021/12/19 07:14:56;;;;;;;13.85;7.97;;;;;;;;;;5053667;28;20076;-66
2021/12/19 07:17:41;;;;;;;14.85;9.38;;;;;;;;;;5018774;28;20040;-66
2021/12/19 07:20:26;;;;;;;13.98;7.13;;;;;;;;;;5009691;28;20064;-65
2021/12/19 07:23:12;;;;;;;14.25;8.10;;;;;;;;;;5010186;28;20022;-65
2021/12/19 07:25:58;;;;;;;13.05;7.05;;;;;;;;;;5011772;28;20057;-69
2021/12/19 07:28:46;;;;;;;13.50;7.32;;;;;;;;;;5014334;28;20030;-69
2021/12/19 07:31:35;;;;;;;15.20;7.82;;;;;;;;;;5045131;28;20091;-66
2021/12/19 07:34:23;;;;;;;15.18;7.88;;;;;;;;;;5030025;28;20117;-66
2021/12/19 07:37:08;;;;;;;12.13;6.72;;;;;;;;;;4994907;28;20037;-66
2021/12/19 07:40:11;;;;;;;14.75;8.15;;;;;;;;;;5036927;28;20428;-65
2021/12/19 07:42:58;;;;;;;14.88;8.77;;;;;;;;;;5021374;28;20038;-67
2021/12/19 07:45:43;;;;;;;13.65;7.78;;;;;;;;;;4994985;28;20037;-67
2021/12/19 07:48:28;;;;;;;14.98;7.85;;;;;;;;;;5026292;28;20041;-67
2021/12/19 07:51:14;;;;;;;14.20;8.10;;;;;;;;;;5011433;28;20096;-67
2021/12/19 07:53:59;;;;;;;14.20;7.63;;;;;;;;;;5032912;28;20433;-69
2021/12/19 07:56:45;;;;;;;13.10;7.20;;;;;;;;;;5009771;28;20026;-66
2021/12/19 07:59:31;;;;;;;12.57;6.82;;;;;;;;;;5000219;28;20682;-66
2021/12/19 08:02:16;;;;;;;14.30;7.45;;;;;;;;;;5013340;28;20110;-70
2021/12/19 08:05:02;;;;;;;11.90;7.03;;;;;;;;;;5011832;28;20026;-66
2021/12/19 08:07:49;;;;;;;14.43;6.88;;;;;;;;;;5018811;28;20045;-72
2021/12/19 08:13:19;;;;;;;14.50;6.93;;;;;;;;;;5044874;28;20023;-72
2021/12/19 08:16:05;;;;;;;18.55;10.23;;;;;;;;;;5035845;28;20022;-70
2021/12/19 08:18:52;;;;;;;19.45;11.85;;;;;;;;;;5012764;28;20056;-70
2021/12/19 08:21:37;;;;;;;12.13;6.72;;;;;;;;;;5003382;28;20676;-66
2021/12/19 08:24:23;;;;;;;12.15;6.88;;;;;;;;;;5009298;28;20088;-70
2021/12/19 08:27:08;;;;;;;11.38;6.40;;;;;;;;;;5022411;28;20125;-69
2021/12/19 08:29:54;;;;;;;11.05;6.63;;;;;;;;;;5022917;28;20366;-68
2021/12/19 08:32:40;;;;;;;11.82;6.18;;;;;;;;;;5046117;28;20064;-68
2021/12/19 08:35:25;;;;;;;11.25;5.45;;;;;;;;;;5035779;28;20029;-69
2021/12/19 08:38:11;;;;;;;11.40;6.38;;;;;;;;;;5000494;28;20022;-68
2021/12/19 08:40:56;;;;;;;12.40;6.32;;;;;;;;;;5032616;28;20117;-72
2021/12/19 08:43:41;;;;;;;11.30;6.30;;;;;;;;;;5041254;28;20369;-69
2021/12/19 08:46:28;;;;;;;10.68;5.50;;;;;;;;;;5040027;28;20460;-69
2021/12/19 08:49:13;;;;;;;12.57;6.22;;;;;;;;;;5042455;28;20022;-68
2021/12/19 08:51:59;;;;;;;18.05;10.68;;;;;;;;;;5015272;28;20026;-69
2021/12/19 08:54:44;;;;;;;13.63;8.32;;;;;;;;;;5005319;28;20428;-68
2021/12/19 08:57:29;;;;;;;10.50;5.57;;;;;;;;;;5018161;28;20081;-69
2021/12/19 09:00:17;;;;;;;11.15;5.90;;;;;;;;;;5010540;28;20034;-65
2021/12/19 09:03:02;;;;;;;10.23;5.32;;;;;;;;;;5019450;28;20104;-70
2021/12/19 09:05:47;;;;;;;11.10;5.38;;;;;;;;;;5035882;28;20521;-70
2021/12/19 09:08:32;;;;;;;9.93;5.00;;;;;;;;;;5018668;28;20026;-69
2021/12/19 09:11:18;;;;;;;8.27;4.43;;;;;;;;;;5044212;28;20637;-69
2021/12/19 09:14:03;;;;;;;9.77;4.68;;;;;;;;;;5033582;28;20068;-72
2021/12/19 09:16:48;;;;;;;8.55;4.15;;;;;;;;;;5020200;28;20381;-70
2021/12/19 09:19:33;;;;;;;6.50;4.03;;;;;;;;;;5010946;28;20045;-70
2021/12/19 09:22:19;;;;;;;8.48;4.43;;;;;;;;;;5026459;28;20296;-69
2021/12/19 09:25:05;;;;;;;9.07;4.40;;;;;;;;;;4998563;28;20440;-70
2021/12/19 09:27:50;;;;;;;8.90;4.00;;;;;;;;;;5010970;28;20589;-69
2021/12/19 09:30:35;;;;;;;7.35;3.75;;;;;;;;;;5009514;28;20061;-70
2021/12/19 09:33:21;;;;;;;7.65;4.03;;;;;;;;;;5013825;28;20028;-70
2021/12/19 09:36:06;;;;;;;8.75;4.47;;;;;;;;;;5020683;28;20677;-66
2021/12/19 09:38:51;;;;;;;8.73;5.03;;;;;;;;;;5030014;28;20057;-71
2021/12/19 09:41:43;;;;;;;28.65;18.67;;;;;;;;;;5008892;28;20037;-74
2021/12/19 09:44:28;;;;;;;7.72;3.83;;;;;;;;;;5008620;28;20022;-71
2021/12/19 09:47:13;;;;;;;7.80;3.97;;;;;;;;;;5013676;28;20409;-72
2021/12/19 09:49:58;;;;;;;8.57;4.13;;;;;;;;;;5007948;28;20022;-70
2021/12/19 09:52:45;;;;;;;7.57;3.45;;;;;;;;;;5024765;28;20515;-70
2021/12/19 09:55:30;;;;;;;7.88;3.15;;;;;;;;;;5014834;28;20038;-68
2021/12/19 09:58:16;;;;;;;6.45;3.55;;;;;;;;;;5024165;28;20116;-67
2021/12/19 10:01:03;;;;;;;7.18;3.50;;;;;;;;;;5014029;28;20072;-68
2021/12/19 10:03:48;;;;;;;6.22;3.03;;;;;;;;;;5018433;28;20017;-70
2021/12/19 10:06:33;;;;;;;5.75;3.20;;;;;;;;;;5008160;28;20564;-67
2021/12/19 10:09:19;;;;;;;6.72;3.63;;;;;;;;;;5035430;28;20030;-68
2021/12/19 10:12:24;;;;;;;6.28;3.30;;;;;;;;;;5017923;28;20029;-72
2021/12/19 10:15:09;;;;;;;5.25;2.85;;;;;;;;;;5010488;28;20037;-72
2021/12/19 10:18:00;;;;;;;7.80;3.67;;;;;;;;;;5047783;28;20104;-70
2021/12/19 10:20:53;;;;;;;5.90;3.08;;;;;;;;;;5024007;28;20096;-70
2021/12/19 10:23:39;;;;;;;16.25;8.80;;;;;;;;;;5010726;28;20037;-72
2021/12/19 10:26:24;;;;;;;10.93;6.38;;;;;;;;;;5038857;28;20037;-73
2021/12/19 10:29:10;;;;;;;9.43;5.10;;;;;;;;;;5011536;28;20026;-71
2021/12/19 10:32:05;;;;;;;6.63;3.38;;;;;;;;;;5017485;28;20026;-71
2021/12/19 10:34:50;;;;;;;7.72;3.33;;;;;;;;;;5026151;28;20042;-67
2021/12/19 10:37:38;;;;;;;6.75;3.08;;;;;;;;;;4998239;28;20049;-67
2021/12/19 10:40:24;;;;;;;5.18;3.20;;;;;;;;;;5019878;28;20651;-66
2021/12/19 10:43:16;;;;;;;6.88;3.63;;;;;;;;;;5016519;28;20461;-67
2021/12/19 10:46:03;;;;;;;4.78;3.03;;;;;;;;;;5017974;28;20097;-65
2021/12/19 10:48:48;;;;;;;6.78;3.47;;;;;;;;;;5019081;28;20026;-64
2021/12/19 10:51:37;;;;;;;7.07;3.47;;;;;;;;;;5036631;28;20107;-67
2021/12/19 10:54:23;;;;;;;6.28;3.47;;;;;;;;;;5001969;28;20452;-72
2021/12/19 10:57:09;;;;;;;6.82;3.47;;;;;;;;;;5008557;28;20433;-68
2021/12/19 10:59:54;;;;;;;6.50;3.40;;;;;;;;;;5045180;28;20057;-69
2021/12/19 11:02:41;;;;;;;6.32;3.88;;;;;;;;;;5039524;28;20509;-69
2021/12/19 11:05:36;;;;;;;5.30;3.25;;;;;;;;;;5034433;28;20578;-69
2021/12/19 11:08:28;;;;;;;6.20;3.38;;;;;;;;;;5036394;28;20026;-70
2021/12/19 11:11:29;;;;;;;9.57;3.55;;;;;;;;;;5007483;28;20034;-70
2021/12/19 11:14:21;;;;;;;4.65;2.80;;;;;;;;;;5013222;28;20497;-66
2021/12/19 11:17:09;;;;;;;4.45;2.72;;;;;;;;;;5032986;28;20029;-67
2021/12/19 11:19:55;;;;;;;4.95;2.85;;;;;;;;;;5036482;28;20032;-69
2021/12/19 11:22:40;;;;;;;5.97;3.67;;;;;;;;;;5034841;28;20033;-67
2021/12/19 11:25:27;;;;;;;7.03;3.50;;;;;;;;;;5011168;28;20037;-70
2021/12/19 11:28:12;;;;;;;6.95;3.75;;;;;;;;;;5010789;28;20584;-68
2021/12/19 11:30:58;;;;;;;6.35;3.40;;;;;;;;;;5037921;28;20321;-70
2021/12/19 11:33:46;;;;;;;7.75;3.83;;;;;;;;;;5016376;28;20419;-70
2021/12/19 11:36:32;;;;;;;9.27;3.85;;;;;;;;;;5013397;28;20477;-68
2021/12/19 11:39:18;;;;;;;5.75;3.35;;;;;;;;;;5007942;28;20022;-69
2021/12/19 11:42:06;;;;;;;6.82;3.58;;;;;;;;;;5006176;28;20076;-70
2021/12/19 11:45:15;;;;;;;6.22;3.35;;;;;;;;;;5026448;28;20431;-68
2021/12/19 11:48:10;;;;;;;6.28;3.75;;;;;;;;;;5037885;28;20174;-71
2021/12/19 11:51:03;;;;;;;7.63;4.35;;;;;;;;;;5032025;28;20075;-71
2021/12/19 11:53:49;;;;;;;7.53;4.68;;;;;;;;;;5016312;28;20034;-69
2021/12/19 11:56:34;;;;;;;19.88;11.38;;;;;;;;;;5025669;28;20087;-72
2021/12/19 11:59:20;;;;;;;10.93;6.13;;;;;;;;;;5016979;28;20030;-72
2021/12/19 12:02:25;;;;;;;6.88;3.72;;;;;;;;;;5034337;28;20042;-67
2021/12/19 12:05:13;;;;;;;6.72;3.70;;;;;;;;;;5040231;28;20206;-67
2021/12/19 12:08:06;;;;;;;8.10;4.47;;;;;;;;;;5009315;28;20499;-68
2021/12/19 12:11:08;;;;;;;8.45;4.57;;;;;;;;;;5039273;28;20029;-65
2021/12/19 12:13:53;;;;;;;6.32;4.03;;;;;;;;;;5037353;28;20034;-67
2021/12/19 12:16:43;;;;;;;6.57;3.90;;;;;;;;;;5052539;28;20033;-66
2021/12/19 12:19:46;;;;;;;7.38;3.97;;;;;;;;;;5032693;28;20643;-65
2021/12/19 12:22:38;;;;;;;7.65;4.20;;;;;;;;;;5030306;28;20025;-69
2021/12/19 12:25:28;;;;;;;8.07;4.57;;;;;;;;;;5028004;28;20179;-69
2021/12/19 12:28:17;;;;;;;8.35;4.63;;;;;;;;;;5023027;28;20385;-69
2021/12/19 12:31:02;;;;;;;6.25;3.85;;;;;;;;;;5018939;28;20050;-70
2021/12/19 12:33:47;;;;;;;53.13;36.85;;;;;;;;;;5031618;28;20478;-68
2021/12/19 12:36:33;;;;;;;11.13;7.53;;;;;;;;;;5029490;28;20052;-68
2021/12/19 12:39:22;;;;;;;8.70;4.72;;;;;;;;;;5040793;28;20518;-68
2021/12/19 12:42:11;;;;;;;7.93;4.15;;;;;;;;;;5022137;28;20030;-65
2021/12/19 12:45:03;;;;;;;7.63;4.40;;;;;;;;;;5025499;28;20115;-67
2021/12/19 12:47:49;;;;;;;8.30;4.20;;;;;;;;;;5028059;28;20036;-66
2021/12/19 12:50:34;;;;;;;7.40;4.35;;;;;;;;;;5003935;28;20022;-65
2021/12/19 12:53:28;;;;;;;7.57;4.50;;;;;;;;;;5010130;28;20199;-64
2021/12/19 12:56:15;;;;;;;9.05;4.47;;;;;;;;;;5050004;28;20480;-66
2021/12/19 12:59:02;;;;;;;8.80;4.70;;;;;;;;;;5052565;28;20392;-67
2021/12/19 13:01:50;;;;;;;7.78;4.38;;;;;;;;;;5001975;28;20029;-72
2021/12/19 13:04:35;;;;;;;7.30;4.35;;;;;;;;;;5037466;28;20033;-71
2021/12/19 13:07:22;;;;;;;7.65;4.30;;;;;;;;;;5033298;28;20397;-72
2021/12/19 13:10:07;;;;;;;7.25;4.38;;;;;;;;;;5009528;28;20018;-71
2021/12/19 13:12:53;;;;;;;5.88;3.97;;;;;;;;;;5033494;28;20022;-70
2021/12/19 13:15:39;;;;;;;10.05;5.07;;;;;;;;;;5011151;28;20045;-67
2021/12/19 13:18:24;;;;;;;6.93;3.83;;;;;;;;;;4997767;28;20408;-73
2021/12/19 13:21:09;;;;;;;8.65;3.97;;;;;;;;;;5030242;28;20037;-72
2021/12/19 13:24:01;;;;;;;6.43;4.03;;;;;;;;;;5009995;28;20049;-69
2021/12/19 13:26:47;;;;;;;6.03;3.88;;;;;;;;;;5031300;28;20092;-69
2021/12/19 13:29:32;;;;;;;6.65;3.75;;;;;;;;;;4996554;28;20113;-67
2021/12/19 13:32:22;;;;;;;7.35;4.45;;;;;;;;;;5027289;28;20049;-69
2021/12/19 13:35:07;;;;;;;;;;;;;;;;;;5034415;28;20026;-68
2021/12/19 13:37:57;;;;;;;6.57;3.58;;;;;;;;;;5043296;28;19909;-69
2021/12/19 13:40:42;;;;;;;;;;;;;;;;;;5007161;28;20161;-69
2021/12/19 13:43:32;;;;;;;9.32;4.50;;;;;;;;;;4994914;28;20297;-71
2021/12/19 13:46:18;;;;;;;6.78;4.15;;;;;;;;;;5044965;28;20413;-68
2021/12/19 13:49:03;;;;;;;6.93;3.70;;;;;;;;;;5050273;28;20141;-71
2021/12/19 13:51:48;;;;;;;6.43;4.05;;;;;;;;;;5036534;28;20045;-68
2021/12/19 13:54:37;;;;;;;7.90;4.45;;;;;;;;;;5011052;28;20037;-67
2021/12/19 13:57:22;;;;;;;6.83;3.97;;;;;;;;;;5010022;28;20025;-69
2021/12/19 14:00:10;;;;;;;7.78;4.45;;;;;;;;;;5007923;28;20030;-68
2021/12/19 14:02:55;;;;;;;6.63;4.13;;;;;;;;;;5007242;28;20018;-71
2021/12/19 14:05:42;;;;;;;7.18;4.53;;;;;;;;;;5012355;28;20038;-69
2021/12/19 14:08:29;;;;;;;14.20;9.63;;;;;;;;;;5035854;28;20033;-72
2021/12/19 14:11:16;;;;;;;12.50;8.43;;;;;;;;;;5028687;28;20026;-66
2021/12/19 14:14:30;;;;;;;6.95;4.78;;;;;;;;;;5008447;28;20072;-73
2021/12/19 14:17:16;;;;;;;7.28;4.40;;;;;;;;;;5015847;28;20452;-70
2021/12/19 14:20:03;;;;;;;8.52;5.20;;;;;;;;;;5012255;28;20021;-67
2021/12/19 14:22:49;;;;;;;8.15;4.93;;;;;;;;;;5024331;28;20041;-69
2021/12/19 14:25:35;;;;;;;8.07;5.00;;;;;;;;;;5023283;28;20497;-70
2021/12/19 14:28:22;;;;;;;8.82;4.80;;;;;;;;;;5039355;28;20061;-70
2021/12/19 14:31:08;;;;;;;9.45;6.13;;;;;;;;;;5032349;28;20096;-71
2021/12/19 14:33:55;;;;;;;10.57;5.72;;;;;;;;;;5040408;28;20025;-71
2021/12/19 14:36:40;;;;;;;8.30;5.38;;;;;;;;;;5010379;28;20033;-71
2021/12/19 14:39:28;;;;;;;8.52;5.32;;;;;;;;;;5037352;28;20034;-71
2021/12/19 14:42:15;;;;;;;9.10;5.93;;;;;;;;;;5034240;28;20104;-74
2021/12/19 14:45:02;;;;;;;8.35;5.65;;;;;;;;;;5046747;28;20152;-73
2021/12/19 14:47:48;;;;;;;8.82;5.25;;;;;;;;;;5042029;28;20415;-71
2021/12/19 14:50:34;;;;;;;9.98;5.80;;;;;;;;;;5013620;28;20076;-73
2021/12/19 14:53:27;;;;;;;12.60;7.82;;;;;;;;;;5012590;28;20038;-72
2021/12/19 14:56:17;;;;;;;10.80;6.05;;;;;;;;;;5007902;28;20098;-72
2021/12/19 14:59:03;;;;;;;38.83;26.13;;;;;;;;;;5040486;28;20582;-71
2021/12/19 15:01:50;;;;;;;40.13;26.60;;;;;;;;;;5007304;28;20141;-74
2021/12/19 15:04:35;;;;;;;13.60;9.82;;;;;;;;;;5013328;28;20043;-73
2021/12/19 15:07:24;;;;;;;13.07;7.63;;;;;;;;;;5031581;28;20137;-70
2021/12/19 15:10:10;;;;;;;12.73;7.97;;;;;;;;;;5006854;28;20034;-66
2021/12/19 15:12:56;;;;;;;11.15;6.47;;;;;;;;;;5022686;28;20042;-66
2021/12/19 15:15:41;;;;;;;12.05;7.93;;;;;;;;;;5000006;28;20229;-66
2021/12/19 15:18:28;;;;;;;13.13;8.32;;;;;;;;;;5017786;28;20056;-67
2021/12/19 15:21:15;;;;;;;12.18;6.93;;;;;;;;;;5030100;28;20120;-66
2021/12/19 15:24:00;;;;;;;11.13;6.90;;;;;;;;;;5031798;28;20391;-68
2021/12/19 15:26:45;;;;;;;9.95;6.10;;;;;;;;;;5050526;28;20136;-70
2021/12/19 15:29:31;;;;;;;9.80;6.38;;;;;;;;;;5003274;28;20090;-72
2021/12/19 15:32:16;;;;;;;10.05;6.07;;;;;;;;;;5028886;28;20026;-73
2021/12/19 15:35:06;;;;;;;14.38;7.45;;;;;;;;;;4997981;28;20469;-69
2021/12/19 15:37:51;;;;;;;12.05;7.63;;;;;;;;;;5014911;28;20030;-70
2021/12/19 15:40:37;;;;;;;12.00;6.82;;;;;;;;;;5009992;28;20049;-69
2021/12/19 15:43:22;;;;;;;10.25;6.00;;;;;;;;;;5018125;28;20036;-70
2021/12/19 15:46:08;;;;;;;13.93;7.32;;;;;;;;;;5045195;28;20037;-69
2021/12/19 15:48:53;;;;;;;11.45;6.72;;;;;;;;;;5030026;28;20034;-69
2021/12/19 15:51:38;;;;;;;11.15;6.57;;;;;;;;;;5035049;28;20380;-69
2021/12/19 15:54:29;;;;;;;11.35;6.72;;;;;;;;;;5047109;28;20416;-69
2021/12/19 15:57:14;;;;;;;11.48;7.47;;;;;;;;;;5027835;28;20030;-68
2021/12/19 16:00:01;;;;;;;11.10;6.90;;;;;;;;;;5020016;28;20062;-69
2021/12/19 16:02:46;;;;;;;14.02;8.73;;;;;;;;;;4995427;28;20040;-67
2021/12/19 16:05:31;;;;;;;27.10;16.42;;;;;;;;;;5022329;28;20028;-66
2021/12/19 16:08:17;;;;;;;18.92;10.95;;;;;;;;;;5016135;28;20029;-68
2021/12/19 16:11:02;;;;;;;17.73;9.82;;;;;;;;;;5005405;28;20029;-67
2021/12/19 16:13:47;;;;;;;16.50;9.48;;;;;;;;;;5039863;28;20033;-66
2021/12/19 16:16:33;;;;;;;13.65;8.20;;;;;;;;;;5047863;28;20116;-65
2021/12/19 16:19:18;;;;;;;9.38;6.00;;;;;;;;;;5043564;28;20023;-66
2021/12/19 16:22:04;;;;;;;10.55;5.60;;;;;;;;;;5012281;28;20022;-66
2021/12/19 16:24:49;;;;;;;12.15;7.00;;;;;;;;;;5012944;28;20405;-68
2021/12/19 16:27:39;;;;;;;10.05;6.80;;;;;;;;;;5015253;28;20038;-69
2021/12/19 16:30:25;;;;;;;10.07;6.00;;;;;;;;;;5004602;28;20130;-68
2021/12/19 16:33:12;;;;;;;11.63;6.28;;;;;;;;;;5026105;28;20444;-70
2021/12/19 16:35:57;;;;;;;14.77;8.75;;;;;;;;;;5019936;28;20034;-69
2021/12/19 16:38:43;;;;;;;12.38;7.70;;;;;;;;;;5003456;28;20030;-70
2021/12/19 16:41:42;;;;;;;12.15;7.50;;;;;;;;;;5031155;28;20022;-66
2021/12/19 16:44:28;;;;;;;10.87;6.30;;;;;;;;;;5022281;28;20050;-66
2021/12/19 16:47:14;;;;;;;12.95;7.63;;;;;;;;;;5029269;28;20608;-66
2021/12/19 16:49:59;;;;;;;12.52;7.95;;;;;;;;;;5046172;28;20034;-66
2021/12/19 16:52:44;;;;;;;11.90;7.88;;;;;;;;;;5009132;28;20093;-66
2021/12/19 16:55:30;;;;;;;15.63;9.18;;;;;;;;;;5018364;28;20057;-69
2021/12/19 16:58:15;;;;;;;12.75;7.68;;;;;;;;;;5014967;28;20106;-69
2021/12/19 17:01:00;;;;;;;27.98;18.58;;;;;;;;;;5006358;28;20440;-62
2021/12/19 17:03:48;;;;;;;15.02;8.88;;;;;;;;;;5010487;28;20042;-67
2021/12/19 17:06:34;;;;;;;13.65;9.05;;;;;;;;;;4995909;28;20045;-63
2021/12/19 17:09:19;;;;;;;14.95;8.63;;;;;;;;;;5007563;28;20514;-64
2021/12/19 17:12:11;;;;;;;12.13;7.97;;;;;;;;;;5024714;28;20060;-70
2021/12/19 17:14:57;;;;;;;13.98;7.45;;;;;;;;;;5010341;28;20033;-67
2021/12/19 17:17:42;;;;;;;13.77;8.02;;;;;;;;;;5034036;28;20060;-64
2021/12/19 17:20:27;;;;;;;12.02;7.30;;;;;;;;;;5034961;28;20022;-65